^^
Datos históricos de la estación: Murcia-Puente Tocinos
Diario Informe para Mayo 04, 2021 Unidades:  Métrico    Ingés   Ambas
Diario Semanal Mensual Anual
  Máxima: Mínima: Promedio:
Temperatura: 22.8 °C 13.6 °C 17.7 °C
Punto de rocio: 13.3 °C 10.4 °C 11.9 °C
Humedad: 90% 45.9% 71%
Velocidad viento: 20.1km/h 0km/h 7.5km/h
Racha viento: 34.3km/h - -
Viento- - SSE
Presión: 1019.4 hPa 1013.7 hPa -
Precipitación: 0.0 mm    
 
 
Tabla de datos para Mayo 04, 2021
Hora Temperatura Punto de rocio Presión Viento Velocidad viento Racha viento Humedad Intensidad lluvia(por hora) Nubes
00:04 15.5 °C 13.2 °C 1019.0 hPa NO 5 km/h 9.7 km/h 86% 0.0 mm
00:09 15.4 °C 13.1 °C 1019.0 hPa North 3.3 km/h 7.4 km/h 86% 0.0 mm
00:14 15.4 °C 13.1 °C 1019.2 hPa NNE 2.9 km/h 8 km/h 86.1% 0.0 mm
00:19 15.4 °C 13.2 °C 1019.2 hPa NNE 2.9 km/h 8.7 km/h 87% 0.0 mm
00:24 15.3 °C 13 °C 1019.2 hPa NE 2.9 km/h 9.3 km/h 86.1% 0.0 mm
00:29 15.2 °C 13 °C 1019.4 hPa ENE 3.7 km/h 8 km/h 86.7% 0.0 mm
00:34 15.3 °C 13.2 °C 1019.4 hPa ONO 3.9 km/h 7.4 km/h 87% 0.0 mm
00:39 15.3 °C 13.2 °C 1019.4 hPa NO 3.9 km/h 8 km/h 87% 0.0 mm
00:44 15.3 °C 13.2 °C 1019.4 hPa ONO 3.9 km/h 10 km/h 87.1% 0.0 mm
00:49 15.2 °C 13.2 °C 1019.2 hPa ONO 4.8 km/h 9.7 km/h 88% 0.0 mm
00:54 15.2 °C 13.2 °C 1019.2 hPa ONO 5 km/h 8 km/h 88% 0.5 mm
00:59 15.2 °C 13.2 °C 1019.2 hPa Oeste 4.1 km/h 8 km/h 88% 0.2 mm
01:04 15.2 °C 13.2 °C 1019.2 hPa ONO 3.9 km/h 9.3 km/h 88% 0.0 mm
01:09 15.2 °C 13.3 °C 1019.2 hPa ONO 4.8 km/h 11.1 km/h 88.7% 0.0 mm
01:14 15.1 °C 13.3 °C 1019.2 hPa NO 5 km/h 11.3 km/h 88.8% 0.0 mm
01:19 15.1 °C 13.3 °C 1018.8 hPa NO 6.4 km/h 10 km/h 89% 0.0 mm
01:24 15 °C 13.2 °C 1018.8 hPa NO 6.9 km/h 9.7 km/h 89% 0.0 mm
01:29 15 °C 13 °C 1018.8 hPa NNO 4.5 km/h 8 km/h 88.1% 0.0 mm
01:34 14.9 °C 13 °C 1018.7 hPa NO 3.9 km/h 8.4 km/h 88% 0.0 mm
01:39 14.9 °C 12.9 °C 1018.7 hPa NO 3.3 km/h 8 km/h 88% 0.0 mm
01:44 14.9 °C 12.9 °C 1018.9 hPa NO 3.2 km/h 8 km/h 88% 0.0 mm
01:49 14.9 °C 12.9 °C 1018.9 hPa NO 3 km/h 6.4 km/h 88% 0.0 mm
01:54 14.9 °C 12.9 °C 1018.9 hPa NNO 2.9 km/h 3.9 km/h 88% 0.0 mm
01:59 14.9 °C 12.9 °C 1018.9 hPa North 0.5 km/h 3.2 km/h 88% 0.0 mm
02:04 15 °C 12.8 °C 1018.8 hPa Calm   7.4 km/h 87% 0.0 mm
02:09 15 °C 12.8 °C 1018.8 hPa NO 1.6 km/h 8 km/h 87% 0.0 mm
02:14 15 °C 12.8 °C 1018.8 hPa ONO 2.2 km/h 8.4 km/h 87% 0.0 mm
02:19 15 °C 12.8 °C 1018.8 hPa ONO 4.2 km/h 8.4 km/h 87% 0.0 mm
02:24 15 °C 12.9 °C 1018.8 hPa Oeste 4.7 km/h 10 km/h 87% 0.0 mm
02:29 15 °C 12.8 °C 1018.8 hPa Oeste 4.9 km/h 9.7 km/h 87% 0.0 mm
02:34 15 °C 12.8 °C 1018.6 hPa Oeste 5 km/h 11.1 km/h 87% 0.0 mm
02:39 14.9 °C 12.8 °C 1018.6 hPa Oeste 6 km/h 11.1 km/h 87% 0.0 mm
02:44 14.8 °C 12.7 °C 1018.6 hPa Oeste 6.5 km/h 11.1 km/h 87% 0.0 mm
02:49 14.8 °C 12.7 °C 1018.3 hPa Oeste 6 km/h 11.3 km/h 87% 0.0 mm
02:54 14.8 °C 12.7 °C 1018.3 hPa Oeste 5.8 km/h 11.3 km/h 87% 0.0 mm
02:59 14.8 °C 12.7 °C 1018.3 hPa Oeste 5.2 km/h 8.4 km/h 87% 0.0 mm
03:04 14.8 °C 12.7 °C 1018.2 hPa Oeste 5 km/h 8 km/h 87% 0.0 mm
03:09 14.8 °C 12.7 °C 1018.2 hPa OSO 4.7 km/h 8 km/h 87% 0.0 mm
03:14 14.8 °C 12.7 °C 1018.2 hPa OSO 4.6 km/h 8.4 km/h 87% 0.0 mm
03:19 14.8 °C 12.7 °C 1018.2 hPa OSO 4.1 km/h 8 km/h 87% 0.0 mm
03:24 14.8 °C 12.7 °C 1018.2 hPa Oeste 3.9 km/h 8 km/h 86.9% 0.0 mm
03:29 14.9 °C 12.6 °C 1018.2 hPa OSO 3.3 km/h 8 km/h 86% 0.0 mm
03:34 14.9 °C 12.6 °C 1017.9 hPa OSO 3.2 km/h 6.4 km/h 86% 0.0 mm
03:39 14.9 °C 12.6 °C 1017.9 hPa OSO 2.5 km/h 3.2 km/h 86% 0.0 mm
03:44 14.9 °C 12.6 °C 1017.9 hPa OSO 2.2 km/h 4.7 km/h 86% 0.0 mm
03:49 14.8 °C 12.5 °C 1017.7 hPa OSO 2.2 km/h 4.8 km/h 86% 0.0 mm
03:54 14.8 °C 12.5 °C 1017.7 hPa OSO 2.2 km/h 5.8 km/h 86% 0.0 mm
03:59 14.8 °C 12.7 °C 1017.7 hPa Sur 3 km/h 7.4 km/h 86.9% 0.0 mm
04:04 14.8 °C 12.7 °C 1017.7 hPa SE 3.2 km/h 11.1 km/h 87% 0.0 mm
04:09 14.7 °C 12.6 °C 1017.7 hPa SSE 5.3 km/h 11.3 km/h 87% 0.0 mm
04:14 14.6 °C 12.6 °C 1017.7 hPa SSE 5.8 km/h 11.3 km/h 87.9% 0.0 mm
04:19 14.5 °C 12.5 °C 1017.5 hPa SSE 6.3 km/h 11.1 km/h 88% 0.0 mm
04:24 14.4 °C 12.6 °C 1017.5 hPa SSE 6.5 km/h 11.3 km/h 88.8% 0.0 mm
04:29 14.3 °C 12.5 °C 1017.5 hPa SSE 6.8 km/h 11.9 km/h 89% 0.0 mm
04:34 14.2 °C 12.4 °C 1017.4 hPa Sur 6.9 km/h 11.3 km/h 89% 0.0 mm
04:39 14.2 °C 12.5 °C 1017.4 hPa SSO 6.9 km/h 11.3 km/h 89.9% 0.0 mm
04:44 14.2 °C 12.5 °C 1017.4 hPa Sur 6.9 km/h 11.3 km/h 90% 0.0 mm
04:49 14.1 °C 12.5 °C 1017.4 hPa SSO 6.5 km/h 11.1 km/h 90% 0.0 mm
04:54 14.1 °C 12.5 °C 1017.4 hPa SSO 6.5 km/h 11.3 km/h 90% 0.0 mm
04:59 14.2 °C 12.5 °C 1017.4 hPa SO 6.8 km/h 11.3 km/h 89.9% 0.0 mm
05:04 14.2 °C 12.4 °C 1017.4 hPa SO 6.9 km/h 9.7 km/h 89% 0.0 mm
05:09 14.2 °C 12.4 °C 1017.4 hPa SO 6 km/h 9.7 km/h 89% 0.0 mm
05:14 14.2 °C 12.4 °C 1017.4 hPa SO 5.8 km/h 9.7 km/h 89% 0.0 mm
05:19 14.2 °C 12.4 °C 1017.4 hPa SO 5.8 km/h 9.7 km/h 89% 0.0 mm
05:24 14.2 °C 12.3 °C 1017.4 hPa SO 5.8 km/h 9.5 km/h 88.4% 0.0 mm
05:29 14.1 °C 12.2 °C 1017.5 hPa SO 5.2 km/h 11.1 km/h 88% 0.0 mm
05:34 14.1 °C 12.1 °C 1017.5 hPa SO 5 km/h 11.3 km/h 88% 0.0 mm
05:39 14 °C 12.1 °C 1017.5 hPa SSO 6.1 km/h 11.3 km/h 88% 0.0 mm
05:44 13.9 °C 12 °C 1017.5 hPa SSO 6.5 km/h 9.7 km/h 88% 0.0 mm
05:49 13.9 °C 11.9 °C 1017.4 hPa Sur 5.1 km/h 8.4 km/h 88% 0.0 mm
05:54 13.9 °C 11.9 °C 1017.4 hPa Sur 4.7 km/h 8 km/h 88% 0.0 mm
05:59 13.9 °C 11.9 °C 1017.4 hPa Sur 4.7 km/h 8 km/h 88% 0.0 mm
06:04 13.9 °C 11.9 °C 1017.4 hPa Sur 4.6 km/h 8 km/h 88% 0.0 mm
06:09 13.9 °C 11.9 °C 1017.4 hPa SSE 4.6 km/h 9.3 km/h 87.6% 0.0 mm
06:14 13.9 °C 11.8 °C 1017.4 hPa SSE 4.7 km/h 9.7 km/h 87% 0.0 mm
06:19 13.8 °C 11.7 °C 1017.4 hPa SSE 5.9 km/h 9.7 km/h 87% 0.0 mm
06:24 13.8 °C 11.7 °C 1017.4 hPa SSE 6.4 km/h 9.5 km/h 87% 0.0 mm
06:29 13.8 °C 11.6 °C 1017.4 hPa SSE 6.5 km/h 11.1 km/h 87% 0.0 mm
06:34 13.7 °C 11.6 °C 1017.2 hPa SE 6.5 km/h 11.3 km/h 87.3% 0.0 mm
06:39 13.7 °C 11.7 °C 1017.2 hPa SSE 6.5 km/h 10 km/h 87.8% 0.0 mm
06:44 13.6 °C 11.5 °C 1017.2 hPa SSE 6.5 km/h 11.9 km/h 87.3% 0.0 mm
06:49 13.6 °C 11.7 °C 1017.2 hPa Sur 7.3 km/h 11.3 km/h 88% 0.0 mm
06:54 13.6 °C 11.7 °C 1017.2 hPa Sur 7.6 km/h 10 km/h 88% 0.0 mm
06:59 13.6 °C 11.7 °C 1017.3 hPa Sur 6.7 km/h 10 km/h 88% 0.0 mm
07:04 13.7 °C 11.7 °C 1017.3 hPa Sur 6.5 km/h 11.1 km/h 88% 0.0 mm
07:09 13.7 °C 11.7 °C 1017.3 hPa Sur 6.8 km/h 11.3 km/h 88% 0.0 mm
07:14 13.8 °C 11.8 °C 1017.4 hPa SSO 6.9 km/h 11.3 km/h 88% 0.0 mm
07:19 13.8 °C 11.8 °C 1017.4 hPa SSO 6.6 km/h 11.3 km/h 88% 0.0 mm
07:24 13.9 °C 11.9 °C 1017.4 hPa SSO 6.5 km/h 10 km/h 87.9% 0.0 mm
07:29 13.9 °C 11.8 °C 1017.5 hPa SSO 6 km/h 9.7 km/h 87.1% 0.0 mm
07:34 13.9 °C 11.8 °C 1017.5 hPa SSO 5.8 km/h 9.7 km/h 87% 0.0 mm
07:39 14 °C 11.7 °C 1017.5 hPa SSO 5.8 km/h 14.8 km/h 86.4% 0.0 mm
07:44 13.9 °C 11.6 °C 1017.6 hPa SSO 5.8 km/h 14.8 km/h 86% 0.0 mm
07:49 13.9 °C 11.6 °C 1017.6 hPa SSO 7.1 km/h 13 km/h 86% 0.0 mm
07:54 13.9 °C 11.5 °C 1017.6 hPa Sur 7.6 km/h 11.3 km/h 85.3% 0.0 mm
07:59 13.9 °C 11.4 °C 1017.8 hPa Sur 7 km/h 14.8 km/h 85% 0.0 mm
08:04 13.8 °C 11.3 °C 1017.8 hPa Sur 6.9 km/h 14.8 km/h 85% 0.0 mm
08:09 13.8 °C 11.3 °C 1017.8 hPa Sur 8.1 km/h 14.5 km/h 85% 0.0 mm
08:14 13.8 °C 11.3 °C 1017.8 hPa SSO 8.4 km/h 13 km/h 85% 0.0 mm
08:19 13.8 °C 11.3 °C 1017.7 hPa SO 7.7 km/h 12.9 km/h 85% 0.0 mm
08:24 13.8 °C 11.2 °C 1017.7 hPa SO 7.6 km/h 11.3 km/h 84.2% 0.0 mm
08:29 13.9 °C 11.2 °C 1017.9 hPa SO 5.5 km/h 9.7 km/h 84% 0.0 mm
08:34 13.9 °C 11.2 °C 1017.9 hPa SO 5 km/h 9.7 km/h 83.7% 0.0 mm
08:39 14 °C 11.1 °C 1017.9 hPa SO 5 km/h 9.5 km/h 83% 0.0 mm
08:44 14.1 °C 11.2 °C 1017.9 hPa SSO 5 km/h 10.3 km/h 82.6% 0.0 mm
08:49 14.3 °C 11.2 °C 1017.8 hPa SSO 5.6 km/h 11.3 km/h 81.8% 0.0 mm
08:54 14.4 °C 11.2 °C 1017.8 hPa SSO 5.8 km/h 11.3 km/h 80.9% 0.0 mm
08:59 14.7 °C 11.2 °C 1017.9 hPa SSO 5.8 km/h 11.3 km/h 79.8% 0.0 mm
09:04 14.8 °C 11.2 °C 1017.9 hPa SSO 5.8 km/h 13 km/h 78.6% 0.0 mm
09:09 15 °C 11.1 °C 1017.9 hPa Sur 4.2 km/h 12.9 km/h 77.6% 0.0 mm
09:14 15.1 °C 11.2 °C 1017.9 hPa SSO 3.9 km/h 11.9 km/h 77.5% 0.0 mm
09:19 15.2 °C 11.2 °C 1017.9 hPa Sur 5.4 km/h 11.3 km/h 77% 0.0 mm
09:24 15.4 °C 11.4 °C 1017.9 hPa Sur 5.8 km/h 13 km/h 77% 0.0 mm
09:29 15.6 °C 11.4 °C 1018.1 hPa Sur 7.2 km/h 12.9 km/h 76.3% 0.0 mm
09:34 15.8 °C 11.5 °C 1018.1 hPa SSE 7.6 km/h 11.9 km/h 76% 0.0 mm
09:39 15.8 °C 11.6 °C 1018.1 hPa SSO 7.6 km/h 11.9 km/h 76% 0.0 mm
09:44 15.9 °C 11.7 °C 1018.1 hPa Sur 7.6 km/h 13 km/h 76% 0.0 mm
09:49 16.1 °C 11.9 °C 1018.0 hPa Sur 7.1 km/h 13 km/h 76% 0.0 mm
09:54 16.3 °C 12 °C 1018.0 hPa SSO 6.9 km/h 13.7 km/h 75.5% 0.0 mm
09:59 16.6 °C 12 °C 1018.0 hPa SSO 6.9 km/h 14.8 km/h 74.3% 0.0 mm
10:04 16.7 °C 11.9 °C 1018.0 hPa SO 6.9 km/h 14.5 km/h 73.3% 0.0 mm
10:09 16.7 °C 11.8 °C 1018.0 hPa SO 7.5 km/h 13.7 km/h 72.6% 0.0 mm
10:14 16.8 °C 11.6 °C 1018.0 hPa SO 7.6 km/h 14.8 km/h 71.5% 0.0 mm
10:19 16.9 °C 11.6 °C 1017.9 hPa OSO 8.4 km/h 14.8 km/h 71% 0.0 mm
10:24 16.9 °C 11.6 °C 1017.9 hPa OSO 8.7 km/h 14.5 km/h 71% 0.0 mm
10:29 17.2 °C 11.8 °C 1017.9 hPa NNO 7.4 km/h 13 km/h 70.8% 0.0 mm
10:34 17.5 °C 11.9 °C 1017.8 hPa OSO 6.9 km/h 12.9 km/h 69.7% 0.0 mm
10:39 17.7 °C 11.6 °C 1017.8 hPa OSO 5.5 km/h 11.1 km/h 67.6% 0.0 mm
10:44 17.8 °C 11.6 °C 1017.8 hPa SO 5 km/h 11.3 km/h 67% 0.0 mm
10:49 18.1 °C 11.6 °C 1017.8 hPa SSE 5.6 km/h 11.3 km/h 66.1% 0.0 mm
10:54 18.3 °C 11.6 °C 1017.8 hPa ESE 5.8 km/h 8 km/h 65% 0.0 mm
10:59 18.6 °C 11.6 °C 1017.8 hPa OSO 4.8 km/h 8 km/h 63.7% 0.0 mm
11:04 18.8 °C 11.6 °C 1017.7 hPa SSE 4.6 km/h 8.7 km/h 62.8% 0.0 mm
11:09 19.2 °C 11.4 °C 1017.7 hPa NE 3.6 km/h 9.7 km/h 61% 0.0 mm
11:14 19.4 °C 11.5 °C 1017.7 hPa ENE 3.2 km/h 9.7 km/h 60.2% 0.0 mm
11:19 19.5 °C 11.3 °C 1017.6 hPa ESE 4.5 km/h 9.7 km/h 59.1% 0.0 mm
11:24 19.5 °C 11.2 °C 1017.6 hPa ESE 5 km/h 9.7 km/h 59% 0.0 mm
11:29 19.7 °C 11.4 °C 1017.8 hPa ESE 4.7 km/h 8 km/h 58.7% 0.0 mm
11:34 19.9 °C 11.3 °C 1017.8 hPa ESE 4.7 km/h 9.5 km/h 57.7% 0.0 mm
11:39 19.9 °C 11.3 °C 1017.8 hPa SSO 4.9 km/h 9.7 km/h 57.5% 0.0 mm
11:44 20.1 °C 11.4 °C 1017.8 hPa ENE 5 km/h 10 km/h 57.6% 0.0 mm
11:49 20.2 °C 11.4 °C 1017.8 hPa North 5.6 km/h 11.9 km/h 57.1% 0.0 mm
11:54 20.2 °C 11.3 °C 1017.8 hPa Oeste 5.8 km/h 11.3 km/h 56.5% 0.0 mm
11:59 20.3 °C 11.1 °C 1017.8 hPa ONO 5.1 km/h 11.1 km/h 55.9% 0.0 mm
12:04 20.4 °C 11.4 °C 1017.7 hPa NO 5 km/h 11.3 km/h 56.2% 0.0 mm
12:09 20.6 °C 11.4 °C 1017.7 hPa ENE 4.7 km/h 16.7 km/h 55.4% 0.0 mm
12:14 20.6 °C 11.2 °C 1017.7 hPa NE 4.7 km/h 16.7 km/h 55% 0.0 mm
12:19 20.6 °C 11 °C 1017.7 hPa Este 7.6 km/h 19 km/h 54.1% 0.0 mm
12:24 20.7 °C 11 °C 1017.7 hPa ENE 8.4 km/h 19.3 km/h 54.1% 0.0 mm
12:29 20.6 °C 11 °C 1017.7 hPa ENE 8.4 km/h 16.1 km/h 54.2% 0.0 mm
12:34 20.6 °C 10.6 °C 1017.5 hPa NE 8.4 km/h 14.5 km/h 52.7% 0.0 mm
12:39 20.7 °C 10.7 °C 1017.5 hPa NNE 7.3 km/h 12.9 km/h 52.8% 0.0 mm
12:44 20.7 °C 10.8 °C 1017.5 hPa NO 6.9 km/h 11.3 km/h 53% 0.0 mm
12:49 20.8 °C 10.9 °C 1017.4 hPa NNE 6.1 km/h 9.7 km/h 53% 0.0 mm
12:54 21.1 °C 11 °C 1017.4 hPa ESE 5.8 km/h 10 km/h 52.6% 0.0 mm
12:59 21.3 °C 10.8 °C 1017.4 hPa ESE 4.3 km/h 13.7 km/h 51.5% 0.0 mm
13:04 21.4 °C 11 °C 1017.3 hPa NE 3.9 km/h 14.5 km/h 51.6% 0.0 mm
13:09 21.4 °C 10.8 °C 1017.3 hPa NNE 5.9 km/h 14.8 km/h 51% 0.0 mm
13:14 21.3 °C 11 °C 1017.3 hPa NE 6.5 km/h 14.5 km/h 51.7% 0.0 mm
13:19 21.5 °C 11 °C 1017.3 hPa NE 6.8 km/h 11.3 km/h 51.1% 0.0 mm
13:24 21.8 °C 10.8 °C 1017.3 hPa OSO 6.9 km/h 10 km/h 49.6% 0.0 mm
13:29 21.8 °C 10.8 °C 1017.3 hPa SO 5.4 km/h 9.7 km/h 49.6% 0.0 mm
13:34 21.8 °C 10.6 °C 1016.9 hPa Sur 5 km/h 8 km/h 49% 0.0 mm
13:39 21.9 °C 10.7 °C 1016.9 hPa ESE 4.7 km/h 11.1 km/h 49% 0.0 mm
13:44 22.1 °C 10.8 °C 1016.9 hPa NNO 4.7 km/h 11.9 km/h 48.6% 0.0 mm
13:49 22.2 °C 10.8 °C 1016.7 hPa NNE 6 km/h 11.3 km/h 48.5% 0.0 mm
13:54 22.2 °C 10.6 °C 1016.7 hPa North 6.5 km/h 17.2 km/h 47.7% 0.0 mm
13:59 21.9 °C 10.4 °C 1016.7 hPa NNE 7.9 km/h 17.7 km/h 48% 0.0 mm
14:04 21.9 °C 10.5 °C 1016.6 hPa NNE 8.4 km/h 16.7 km/h 48.2% 0.0 mm
14:09 21.9 °C 10.4 °C 1016.6 hPa NO 8.6 km/h 16.7 km/h 47.9% 0.0 mm
14:14 22.1 °C 10.4 °C 1016.6 hPa OSO 8.7 km/h 16.1 km/h 47.4% 0.0 mm
14:19 22.2 °C 10.6 °C 1016.4 hPa North 6.4 km/h 13 km/h 47.6% 0.0 mm
14:24 22.5 °C 10.8 °C 1016.4 hPa North 5.8 km/h 12.9 km/h 47.7% 0.0 mm
14:29 22.7 °C 10.5 °C 1016.4 hPa NE 4.9 km/h 10 km/h 46.1% 0.0 mm
14:34 22.7 °C 10.6 °C 1016.2 hPa NE 4.7 km/h 9.7 km/h 46.2% 0.0 mm
14:39 22.8 °C 10.5 °C 1016.2 hPa ENE 4.9 km/h 14.8 km/h 46% 0.0 mm
14:44 22.8 °C 10.5 °C 1016.2 hPa NNO 5 km/h 14.5 km/h 46% 0.0 mm
14:49 22.8 °C 10.5 °C 1015.9 hPa OSO 6 km/h 15.6 km/h 45.9% 0.0 mm
14:54 22.7 °C 10.5 °C 1015.9 hPa NNO 6.4 km/h 14.8 km/h 46% 0.0 mm
14:59 22.7 °C 10.6 °C 1015.9 hPa NNE 8.1 km/h 17.2 km/h 46.5% 0.0 mm
15:04 22.7 °C 10.6 °C 1015.7 hPa NNE 8.7 km/h 24.5 km/h 46.2% 0.0 mm
15:09 22.7 °C 11.4 °C 1015.7 hPa NNE 10.5 km/h 25.9 km/h 48.8% 0.0 mm
15:14 22.7 °C 11.3 °C 1015.7 hPa NE 11.1 km/h 25.9 km/h 48.7% 0.0 mm
15:19 22.6 °C 11.5 °C 1015.4 hPa NE 12.9 km/h 25.9 km/h 49.3% 0.0 mm
15:24 22.6 °C 11.6 °C 1015.4 hPa NE 13.7 km/h 25.7 km/h 49.8% 0.0 mm
15:29 22.6 °C 11.6 °C 1015.4 hPa NE 13.9 km/h 32.8 km/h 49.9% 0.0 mm
15:34 22.4 °C 11.4 °C 1015.3 hPa NE 14 km/h 33.8 km/h 50% 0.0 mm
15:39 22.2 °C 11.5 °C 1015.3 hPa NNE 17.1 km/h 33.8 km/h 50.8% 0.0 mm
15:44 22.2 °C 11.6 °C 1015.3 hPa NE 18 km/h 33.8 km/h 51% 0.0 mm
15:49 22.2 °C 11.6 °C 1015.2 hPa NE 18 km/h 33.8 km/h 50.9% 0.0 mm
15:54 22.2 °C 11.5 °C 1015.2 hPa NNE 18 km/h 32.2 km/h 50.8% 0.0 mm
15:59 22.1 °C 11.6 °C 1015.2 hPa NE 16 km/h 32.2 km/h 51.4% 0.0 mm
16:04 22.1 °C 11.5 °C 1015.1 hPa NE 15.6 km/h 27.8 km/h 51.2% 0.0 mm
16:09 22 °C 11.7 °C 1015.1 hPa NNE 16 km/h 27.4 km/h 52% 0.0 mm
16:14 22 °C 11.7 °C 1015.1 hPa NE 16.1 km/h 25.7 km/h 52% 0.0 mm
16:19 21.9 °C 11.6 °C 1014.9 hPa NNE 15.1 km/h 24.5 km/h 52% 0.0 mm
16:24 21.8 °C 11.5 °C 1014.9 hPa NE 14.8 km/h 24.5 km/h 52% 0.0 mm
16:29 21.8 °C 11.6 °C 1014.9 hPa NE 15.4 km/h 27.8 km/h 52.5% 0.0 mm
16:34 21.7 °C 11.7 °C 1014.7 hPa NNE 15.6 km/h 27.4 km/h 53% 0.0 mm
16:39 21.7 °C 11.7 °C 1014.7 hPa NNE 16 km/h 27.8 km/h 53% 0.0 mm
16:44 21.7 °C 11.8 °C 1014.7 hPa NE 16.1 km/h 31.7 km/h 53.3% 0.0 mm
16:49 21.7 °C 11.8 °C 1014.7 hPa NE 16.1 km/h 31.5 km/h 53.4% 0.0 mm
16:54 21.6 °C 11.8 °C 1014.7 hPa NNE 16.1 km/h 32.2 km/h 53.6% 0.0 mm
16:59 21.3 °C 11.8 °C 1014.7 hPa NNE 17.3 km/h 29.6 km/h 54.6% 0.0 mm
17:04 21.3 °C 11.9 °C 1014.7 hPa NE 18 km/h 27.4 km/h 55% 0.0 mm
17:09 21.3 °C 11.9 °C 1014.7 hPa NNE 17.3 km/h 26.2 km/h 55.1% 0.0 mm
17:14 21.3 °C 12.1 °C 1014.7 hPa NE 16.4 km/h 29.8 km/h 55.7% 0.0 mm
17:19 21.4 °C 12.2 °C 1014.6 hPa ENE 15 km/h 30.6 km/h 55.6% 0.0 mm
17:24 21.6 °C 12.2 °C 1014.6 hPa Este 14 km/h 24.1 km/h 55.3% 0.0 mm
17:29 21.7 °C 12.2 °C 1014.7 hPa ESE 13 km/h 34.3 km/h 55.1% 0.0 mm
17:34 21.2 °C 12 °C 1014.7 hPa ESE 12.2 km/h 33.8 km/h 55.7% 0.0 mm
17:39 21 °C 12.1 °C 1014.7 hPa ESE 16.3 km/h 33.8 km/h 56.8% 0.0 mm
17:44 20.8 °C 12.2 °C 1014.7 hPa Este 20.1 km/h 30.6 km/h 57.9% 0.0 mm
17:49 20.8 °C 12.3 °C 1014.6 hPa ESE 18 km/h 29.6 km/h 57.9% 0.0 mm
17:54 20.9 °C 12.3 °C 1014.6 hPa ESE 16.4 km/h 29 km/h 57.8% 0.0 mm
17:59 20.9 °C 12.4 °C 1014.6 hPa Este 14.9 km/h 25.7 km/h 58% 0.0 mm
18:04 21.1 °C 12.5 °C 1014.4 hPa Este 14 km/h 24.1 km/h 58% 0.0 mm
18:09 21 °C 12.3 °C 1014.4 hPa Este 12.9 km/h 20.9 km/h 57.7% 0.0 mm
18:14 20.9 °C 12.3 °C 1014.4 hPa Este 11.9 km/h 24.5 km/h 58% 0.0 mm
18:19 20.8 °C 12.2 °C 1014.4 hPa Este 12.1 km/h 24.1 km/h 58% 0.0 mm
18:24 20.6 °C 12 °C 1014.4 hPa Este 12.2 km/h 20.9 km/h 58% 0.0 mm
18:29 20.6 °C 12.2 °C 1014.4 hPa Este 12.2 km/h 20.9 km/h 58.7% 0.0 mm
18:34 20.6 °C 12.2 °C 1014.4 hPa ENE 12.2 km/h 22.2 km/h 58.7% 0.0 mm
18:39 20.5 °C 12.2 °C 1014.4 hPa ENE 11.6 km/h 24.5 km/h 58.8% 0.0 mm
18:44 20.5 °C 12.2 °C 1014.4 hPa Este 11.1 km/h 24.1 km/h 59% 0.0 mm
18:49 20.4 °C 12.2 °C 1014.4 hPa Este 11.5 km/h 22.5 km/h 59% 0.0 mm
18:54 20.5 °C 12.2 °C 1014.4 hPa Este 11.9 km/h 20.9 km/h 59% 0.0 mm
18:59 20.4 °C 12.3 °C 1014.4 hPa Este 10.4 km/h 18.5 km/h 59.6% 0.0 mm
19:04 20.3 °C 12.3 °C 1014.3 hPa Este 9.5 km/h 19.3 km/h 60.1% 0.0 mm
19:09 20.2 °C 12.4 °C 1014.3 hPa Este 9.9 km/h 19.3 km/h 60.7% 0.0 mm
19:14 20.2 °C 12.2 °C 1014.3 hPa Este 10.3 km/h 17.7 km/h 60.2% 0.0 mm
19:19 20.2 °C 12.2 °C 1014.1 hPa Este 9.4 km/h 14.8 km/h 60.3% 0.0 mm
19:24 20.1 °C 12.2 °C 1014.1 hPa Este 8.7 km/h 16.1 km/h 60.3% 0.0 mm
19:29 20.1 °C 12.2 °C 1014.1 hPa NE 8.7 km/h 16.7 km/h 60.3% 0.0 mm
19:34 20.2 °C 12.1 °C 1013.9 hPa NE 8.7 km/h 16.1 km/h 60% 0.0 mm
19:39 20.1 °C 12.1 °C 1013.9 hPa ENE 8.5 km/h 17.2 km/h 60% 0.0 mm
19:44 19.9 °C 12 °C 1013.9 hPa NE 8.4 km/h 19.8 km/h 60.5% 0.0 mm
19:49 19.7 °C 11.9 °C 1013.8 hPa NNE 9.3 km/h 20.9 km/h 60.4% 0.0 mm
19:54 19.7 °C 11.8 °C 1013.8 hPa NE 10 km/h 22.2 km/h 60.6% 0.0 mm
19:59 19.6 °C 11.7 °C 1013.8 hPa NE 10.7 km/h 22.5 km/h 60.6% 0.0 mm
20:00 19.6 °C 11.6 °C 1013.7 hPa NE 11.3 km/h 20.9 km/h 60% 0.0 mm
Murcia-Puente Tocinos, España
Compliments of Weather Underground - 2.75 mb

La estación de MeteoMurcia.com, publica sus datos en los siguientes proyectos:

Weather Underground PWS IMURCIAP2 Meteoclimatic www.awekas.at

W3Counter
Web Analytics